createdAt,value
2023-07-10T00:02:33.447Z,4.60
2023-07-10T00:05:39.053Z,5.30
2023-07-10T00:08:51.428Z,4.80
2023-07-10T00:11:45.033Z,4.20
2023-07-10T00:14:43.739Z,4.70
2023-07-10T00:18:00.137Z,4.70
2023-07-10T00:20:52.024Z,4.40
2023-07-10T00:24:07.027Z,5.00
2023-07-10T00:27:00.380Z,4.80
2023-07-10T00:30:04.838Z,4.70
2023-07-10T00:33:17.226Z,4.50
2023-07-10T00:36:52.881Z,4.40
2023-07-10T00:39:48.086Z,5.00
2023-07-10T00:42:52.036Z,4.60
2023-07-10T00:45:55.313Z,4.80
2023-07-10T00:48:57.622Z,4.60
2023-07-10T00:52:02.574Z,4.50
2023-07-10T00:55:12.422Z,4.50
2023-07-10T00:57:50.170Z,4.90
2023-07-10T01:00:59.337Z,5.10
2023-07-10T01:04:04.249Z,5.00
2023-07-10T01:07:05.407Z,4.90
2023-07-10T01:10:18.318Z,4.20
2023-07-10T01:13:13.160Z,3.90
2023-07-10T01:16:24.351Z,4.40
2023-07-10T01:19:38.761Z,4.40
2023-07-10T01:22:19.193Z,4.60
2023-07-10T01:25:24.501Z,4.90
2023-07-10T01:28:22.703Z,4.50
2023-07-10T01:31:37.590Z,4.40
2023-07-10T01:34:36.821Z,4.50
2023-07-10T01:37:48.976Z,4.50
2023-07-10T01:41:06.372Z,4.60
2023-07-10T01:43:58.389Z,4.40
2023-07-10T01:46:51.739Z,4.20
2023-07-10T01:49:55.858Z,4.50
2023-07-10T01:52:45.267Z,4.60
2023-07-10T01:55:44.789Z,4.60
2023-07-10T01:58:54.384Z,4.80
2023-07-10T02:02:16.748Z,4.60
2023-07-10T02:05:28.235Z,4.20
2023-07-10T02:08:28.139Z,4.50
2023-07-10T02:11:27.546Z,4.40
2023-07-10T02:14:41.906Z,4.50
2023-07-10T02:17:53.425Z,4.60
2023-07-10T02:20:56.531Z,4.30
2023-07-10T02:23:51.434Z,4.70
2023-07-10T02:27:03.697Z,4.40
2023-07-10T03:11:41.678Z,4.60
2023-07-10T03:21:31.356Z,5.40
2023-07-10T03:27:33.511Z,5.00
2023-07-10T03:30:51.106Z,4.80
2023-07-10T03:33:55.332Z,5.20
2023-07-10T03:36:56.925Z,5.20
2023-07-10T03:40:14.984Z,5.20
2023-07-10T03:43:15.813Z,5.90
2023-07-10T03:46:18.340Z,6.90
2023-07-10T03:49:45.775Z,6.70
2023-07-10T03:53:09.669Z,6.10
2023-07-10T03:56:18.248Z,6.40
2023-07-10T03:59:30.364Z,6.40
2023-07-10T04:02:41.609Z,5.60
2023-07-10T04:05:53.060Z,6.30
2023-07-10T04:09:06.962Z,6.00
2023-07-10T04:12:01.947Z,6.60
2023-07-10T04:15:39.360Z,6.30
2023-07-10T04:18:45.268Z,5.80
2023-07-10T04:21:44.964Z,5.70
2023-07-10T04:24:36.783Z,6.30
2023-07-10T04:27:20.817Z,5.60
2023-07-10T04:30:18.363Z,5.80
2023-07-10T04:33:38.714Z,5.60
2023-07-10T04:36:43.076Z,5.80
2023-07-10T04:39:47.351Z,5.60
2023-07-10T04:43:02.040Z,5.70
2023-07-10T04:45:56.719Z,5.20
2023-07-10T04:48:41.416Z,5.00
2023-07-10T04:51:44.545Z,5.80
2023-07-10T04:54:58.660Z,5.10
2023-07-10T04:57:59.529Z,4.70
2023-07-10T05:01:02.363Z,4.70
2023-07-10T05:03:54.730Z,5.50
2023-07-10T05:06:41.777Z,4.70
2023-07-10T05:09:37.023Z,4.70
2023-07-10T05:12:24.473Z,5.00
2023-07-10T05:15:44.023Z,5.50
2023-07-10T05:18:28.282Z,4.90
2023-07-10T05:21:04.221Z,4.20
2023-07-10T05:24:16.410Z,4.90
2023-07-10T05:26:58.822Z,4.90
2023-07-10T05:29:51.483Z,5.10
2023-07-10T05:32:38.353Z,5.30
2023-07-10T05:35:10.429Z,5.20
2023-07-10T05:37:44.916Z,5.40
2023-07-10T05:40:25.120Z,4.90
2023-07-10T05:43:04.995Z,5.10
2023-07-10T05:45:36.230Z,4.60
2023-07-10T05:48:18.255Z,5.40
2023-07-10T05:50:50.840Z,5.00
2023-07-10T05:53:25.652Z,4.60
2023-07-10T05:56:16.712Z,5.20
2023-07-10T05:58:57.247Z,5.10
2023-07-10T06:01:32.612Z,4.40
2023-07-10T06:04:11.110Z,4.50
2023-07-10T06:06:42.862Z,5.00
2023-07-10T06:09:16.565Z,5.00
2023-07-10T06:11:58.077Z,4.90
2023-07-10T06:14:31.863Z,4.60
2023-07-10T06:17:03.334Z,4.60
2023-07-10T06:19:33.922Z,4.20
2023-07-10T06:22:10.375Z,4.00
2023-07-10T06:24:46.361Z,4.90
2023-07-10T06:27:24.935Z,4.80
2023-07-10T06:29:55.547Z,4.80
2023-07-10T06:32:26.535Z,4.50
2023-07-10T06:34:57.046Z,4.40
2023-07-10T06:37:31.537Z,4.40
2023-07-10T06:40:18.509Z,5.00
2023-07-10T06:42:49.458Z,4.50
2023-07-10T06:45:21.933Z,4.60
2023-07-10T06:47:58.625Z,4.70
2023-07-10T06:50:32.161Z,4.70
2023-07-10T06:53:15.303Z,4.70
2023-07-10T06:55:59.756Z,4.90
2023-07-10T06:58:34.087Z,4.90
2023-07-10T07:01:05.656Z,4.80
2023-07-10T07:03:34.892Z,4.60
2023-07-10T07:06:08.386Z,4.40
2023-07-10T07:08:38.457Z,4.20
2023-07-10T07:11:09.277Z,4.60
2023-07-10T07:13:38.244Z,4.50
2023-07-10T07:16:09.323Z,3.80
2023-07-10T07:18:39.302Z,4.20
2023-07-10T07:21:15.311Z,4.30
2023-07-10T07:23:44.978Z,4.60
2023-07-10T07:26:15.597Z,4.20
2023-07-10T07:28:46.509Z,4.00
2023-07-10T07:31:18.862Z,4.10
2023-07-10T07:33:50.671Z,3.70
2023-07-10T07:36:21.317Z,4.50
2023-07-10T07:38:51.767Z,4.00
2023-07-10T07:41:24.137Z,4.30
2023-07-10T07:43:53.186Z,3.70
2023-07-10T07:46:23.015Z,3.80
2023-07-10T07:48:53.423Z,3.60
2023-07-10T07:51:23.826Z,4.00
2023-07-10T07:54:05.439Z,4.10
2023-07-10T07:56:35.929Z,3.60
2023-07-10T07:59:06.583Z,4.20
2023-07-10T08:01:36.961Z,3.90
2023-07-10T08:04:07.450Z,4.40
2023-07-10T08:06:38.220Z,3.70
2023-07-10T08:09:07.431Z,3.40
2023-07-10T08:11:39.089Z,3.50
2023-07-10T08:14:08.189Z,4.00
2023-07-10T08:16:38.949Z,4.80
2023-07-10T08:19:09.043Z,4.00
2023-07-10T08:21:39.649Z,3.70
2023-07-10T08:24:09.866Z,4.00
2023-07-10T08:26:40.306Z,4.10
2023-07-10T08:29:30.443Z,4.00
2023-07-10T08:32:02.205Z,3.80
2023-07-10T08:34:33.186Z,3.80
2023-07-10T08:37:04.265Z,3.70
2023-07-10T08:39:33.257Z,4.00
2023-07-10T08:42:17.416Z,3.80
2023-07-10T08:44:53.834Z,3.50
2023-07-10T08:47:28.452Z,3.90
2023-07-10T08:50:23.798Z,3.70
2023-07-10T08:53:14.234Z,4.00
2023-07-10T08:56:12.025Z,3.60
2023-07-10T08:58:42.268Z,3.60
2023-07-10T09:01:30.332Z,3.50
2023-07-10T09:04:01.904Z,3.70
2023-07-10T09:06:41.855Z,3.90
2023-07-10T09:09:37.286Z,4.10
2023-07-10T09:12:21.728Z,4.20
2023-07-10T09:15:16.346Z,3.70
2023-07-10T09:17:49.503Z,3.90
2023-07-10T09:20:23.755Z,3.60
2023-07-10T09:23:19.750Z,3.70
2023-07-10T09:25:56.234Z,3.90
2023-07-10T09:28:27.318Z,3.80
2023-07-10T09:31:11.209Z,4.00
2023-07-10T09:33:44.864Z,4.20
2023-07-10T09:36:21.321Z,3.90
2023-07-10T09:38:54.299Z,4.20
2023-07-10T09:41:27.422Z,3.50
2023-07-10T09:44:05.732Z,4.20
2023-07-10T09:46:38.154Z,4.10
2023-07-10T09:49:23.040Z,3.40
2023-07-10T09:52:02.713Z,3.80
2023-07-10T09:54:38.562Z,3.60
2023-07-10T09:57:19.786Z,3.50
2023-07-10T09:59:55.912Z,4.20
2023-07-10T10:02:44.676Z,3.90
2023-07-10T10:05:14.699Z,3.40
2023-07-10T10:07:48.897Z,3.70
2023-07-10T10:10:23.227Z,3.60
2023-07-10T10:12:59.536Z,3.90
2023-07-10T10:15:45.058Z,4.20
2023-07-10T10:18:37.597Z,4.40
2023-07-10T10:21:13.323Z,4.30
2023-07-10T10:23:49.848Z,4.30
2023-07-10T10:27:08.286Z,3.90
2023-07-10T10:29:55.455Z,3.80
2023-07-10T10:32:55.610Z,3.80
2023-07-10T10:35:47.788Z,3.90
2023-07-10T10:38:47.359Z,3.80
2023-07-10T10:41:44.351Z,4.00
2023-07-10T10:44:31.329Z,4.20
2023-07-10T10:50:04.564Z,3.90
2023-07-10T10:52:54.001Z,4.10
2023-07-10T10:55:59.932Z,4.00
2023-07-10T10:58:37.835Z,3.90
2023-07-10T11:01:38.836Z,5.00
2023-07-10T11:04:33.175Z,4.20
2023-07-10T11:07:13.317Z,3.80
2023-07-10T11:09:57.508Z,4.10
2023-07-10T11:12:34.950Z,4.50
2023-07-10T11:15:19.772Z,4.20
2023-07-10T11:17:53.833Z,4.20
2023-07-10T11:20:26.969Z,4.20
2023-07-10T11:23:05.937Z,4.20
2023-07-10T11:25:45.606Z,4.10
2023-07-10T11:28:28.666Z,4.70
2023-07-10T11:31:33.696Z,4.40
2023-07-10T11:34:17.092Z,4.00
2023-07-10T11:36:48.138Z,4.20
2023-07-10T11:39:37.074Z,3.80
2023-07-10T11:42:16.079Z,4.50
2023-07-10T11:44:54.510Z,4.80
2023-07-10T11:47:30.893Z,4.20
2023-07-10T11:50:02.858Z,5.10
2023-07-10T11:52:35.119Z,4.40
2023-07-10T11:55:12.679Z,5.00
2023-07-10T11:57:45.296Z,4.80
2023-07-10T12:00:15.006Z,4.90
2023-07-10T12:02:50.298Z,4.90
2023-07-10T12:05:25.236Z,5.00
2023-07-10T12:08:02.481Z,4.80
2023-07-10T12:10:42.254Z,4.80
2023-07-10T12:15:59.085Z,5.00
2023-07-10T12:18:34.646Z,4.80
2023-07-10T12:21:12.550Z,5.40
2023-07-10T12:23:54.649Z,5.40
2023-07-10T12:27:05.795Z,5.30
2023-07-10T12:29:19.040Z,5.40
2023-07-10T12:31:50.279Z,5.40
2023-07-10T12:34:27.032Z,5.00
2023-07-10T12:37:02.284Z,5.40
2023-07-10T12:39:34.056Z,4.80
2023-07-10T12:42:24.774Z,5.20
2023-07-10T12:44:55.298Z,5.10
2023-07-10T12:47:27.098Z,5.30
2023-07-10T12:50:01.053Z,5.00
2023-07-10T12:52:38.006Z,4.90
2023-07-10T12:55:18.314Z,4.60
2023-07-10T12:57:50.700Z,4.60
2023-07-10T13:00:20.806Z,5.20
2023-07-10T13:02:53.366Z,4.90
2023-07-10T13:05:30.976Z,4.90
2023-07-10T13:10:45.586Z,4.70
2023-07-10T13:13:22.256Z,4.70
2023-07-10T13:15:52.555Z,4.60
2023-07-10T13:18:27.024Z,5.30
2023-07-10T13:20:56.940Z,4.70
2023-07-10T13:23:27.020Z,5.30
2023-07-10T13:25:57.958Z,4.60
2023-07-10T13:28:48.018Z,4.90
2023-07-10T13:31:24.448Z,4.70
2023-07-10T13:33:58.033Z,4.80
2023-07-10T13:36:29.026Z,4.80
2023-07-10T13:39:01.947Z,4.70
2023-07-10T13:41:32.668Z,4.70
2023-07-10T13:44:02.771Z,5.10
2023-07-10T13:46:34.516Z,5.00
2023-07-10T13:49:11.867Z,4.90
2023-07-10T13:51:42.931Z,4.70
2023-07-10T13:54:14.022Z,5.30
2023-07-10T13:56:47.413Z,4.60
2023-07-10T13:59:19.901Z,5.50
2023-07-10T14:01:52.034Z,5.10
2023-07-10T14:04:24.669Z,4.80
2023-07-10T14:06:54.168Z,5.30
2023-07-10T14:09:24.060Z,5.50
2023-07-10T14:11:53.240Z,5.00
2023-07-10T14:14:24.192Z,5.30
2023-07-10T14:16:54.914Z,4.80
2023-07-10T14:19:27.330Z,5.00
2023-07-10T14:21:57.045Z,5.70
2023-07-10T14:24:26.829Z,5.10
2023-07-10T14:26:56.896Z,5.40
2023-07-10T14:29:27.894Z,6.30
2023-07-10T14:31:58.664Z,5.70
2023-07-10T14:34:29.462Z,6.20
2023-07-10T14:37:00.560Z,6.40
2023-07-10T14:39:31.447Z,6.80
2023-07-10T14:42:01.295Z,5.60
2023-07-10T14:44:30.241Z,6.10
2023-07-10T14:47:07.561Z,5.90
2023-07-10T14:49:39.558Z,5.90
2023-07-10T14:52:19.406Z,5.80
2023-07-10T14:54:54.839Z,5.10
2023-07-10T14:57:39.572Z,5.30
2023-07-10T15:00:22.753Z,5.70
2023-07-10T15:02:53.939Z,5.30
2023-07-10T15:05:25.300Z,5.40
2023-07-10T15:07:58.653Z,4.80
2023-07-10T15:10:30.043Z,5.00
2023-07-10T15:13:03.709Z,5.10
2023-07-10T15:15:38.530Z,5.10
2023-07-10T15:18:15.425Z,5.70
2023-07-10T15:20:47.040Z,4.90
2023-07-10T15:23:26.550Z,5.50
2023-07-10T15:26:06.372Z,4.70
2023-07-10T15:28:37.589Z,5.20
2023-07-10T15:31:11.187Z,4.80
2023-07-10T15:33:44.365Z,4.90
2023-07-10T15:36:20.688Z,5.00
2023-07-10T15:38:51.157Z,4.70
2023-07-10T15:41:26.669Z,5.10
2023-07-10T15:43:57.189Z,5.10
2023-07-10T15:46:28.089Z,5.10
2023-07-10T15:48:58.319Z,5.20
2023-07-10T15:51:29.758Z,4.90
2023-07-10T15:53:58.817Z,5.10
2023-07-10T15:56:29.731Z,4.50
2023-07-10T15:59:00.452Z,5.00
2023-07-10T16:01:30.566Z,5.40
2023-07-10T16:04:00.776Z,4.90
2023-07-10T16:06:31.185Z,5.50
2023-07-10T16:09:02.050Z,5.20
2023-07-10T16:11:32.768Z,5.00
2023-07-10T16:14:03.505Z,4.80
2023-07-10T16:16:34.252Z,4.80
2023-07-10T16:19:04.954Z,4.90
2023-07-10T16:21:35.737Z,4.80
2023-07-10T16:24:15.419Z,5.00
2023-07-10T16:26:48.818Z,4.50
2023-07-10T16:29:19.576Z,4.60
2023-07-10T16:31:50.865Z,4.80
2023-07-10T16:34:22.957Z,4.80
2023-07-10T16:36:54.405Z,4.60
2023-07-10T16:39:24.935Z,4.70
2023-07-10T16:41:57.423Z,4.70
2023-07-10T16:44:28.376Z,5.10
2023-07-10T16:46:58.958Z,4.90
2023-07-10T16:49:29.953Z,4.40
2023-07-10T16:52:00.838Z,4.50
2023-07-10T16:54:31.833Z,4.50
2023-07-10T16:57:00.958Z,4.60
2023-07-10T16:59:31.964Z,4.50
2023-07-10T17:02:04.447Z,4.50
2023-07-10T17:04:34.948Z,4.70
2023-07-10T17:07:05.197Z,4.70
2023-07-10T17:09:35.675Z,5.00
2023-07-10T17:12:05.683Z,5.50
2023-07-10T17:14:36.555Z,4.60
2023-07-10T17:17:25.465Z,4.60
2023-07-10T17:19:57.149Z,4.80
2023-07-10T17:22:34.161Z,4.70
2023-07-10T17:25:13.769Z,4.80
2023-07-10T17:27:46.772Z,5.20
2023-07-10T17:30:17.642Z,5.40
2023-07-10T17:32:49.052Z,5.80
2023-07-10T17:35:21.630Z,8.30
2023-07-10T17:37:54.366Z,6.80
2023-07-10T17:40:24.968Z,5.80
2023-07-10T17:42:56.487Z,5.20
2023-07-10T17:45:26.722Z,5.70
2023-07-10T17:47:57.018Z,5.70
2023-07-10T17:50:27.204Z,7.00
2023-07-10T17:52:58.208Z,24.10
2023-07-10T17:55:27.356Z,12.20
2023-07-10T17:58:06.258Z,7.00
2023-07-10T18:00:36.609Z,5.70
2023-07-10T18:03:06.862Z,6.10
2023-07-10T18:05:40.198Z,5.90
2023-07-10T18:08:22.158Z,6.50
2023-07-10T18:11:01.605Z,13.40
2023-07-10T18:13:40.753Z,7.00
2023-07-10T18:16:12.532Z,6.90
2023-07-10T18:18:42.543Z,8.20
2023-07-10T18:21:22.939Z,7.90
2023-07-10T18:23:54.987Z,8.10
2023-07-10T18:26:29.901Z,8.80
2023-07-10T18:28:59.779Z,9.50
2023-07-10T18:31:32.486Z,10.10
2023-07-10T18:34:03.006Z,9.90
2023-07-10T18:36:34.886Z,9.20
2023-07-10T18:39:05.824Z,9.10
2023-07-10T18:41:37.675Z,9.30
2023-07-10T18:44:14.900Z,9.00
2023-07-10T18:46:47.422Z,8.70
2023-07-10T18:49:23.551Z,8.40
2023-07-10T18:51:54.209Z,8.50
2023-07-10T18:54:25.050Z,9.10
2023-07-10T18:56:55.465Z,10.00
2023-07-10T18:59:28.566Z,9.00
2023-07-10T19:01:57.825Z,8.80
2023-07-10T19:04:28.832Z,7.90
2023-07-10T19:06:59.018Z,8.40
2023-07-10T19:09:32.490Z,7.80
2023-07-10T19:12:08.572Z,6.50
2023-07-10T19:14:38.412Z,6.20
2023-07-10T19:17:15.830Z,6.90
2023-07-10T19:19:54.236Z,7.70
2023-07-10T19:22:25.846Z,7.10
2023-07-10T19:25:05.182Z,7.50
2023-07-10T19:27:39.296Z,7.60
2023-07-10T19:30:17.992Z,6.60
2023-07-10T19:32:48.780Z,6.70
2023-07-10T19:35:20.061Z,6.80
2023-07-10T19:37:50.654Z,6.40
2023-07-10T19:40:24.992Z,6.20
2023-07-10T19:42:59.617Z,7.00
2023-07-10T19:45:30.540Z,7.50
2023-07-10T19:48:25.980Z,7.00
2023-07-10T19:50:57.182Z,7.20
2023-07-10T19:53:33.261Z,6.90
2023-07-10T19:56:21.021Z,7.10
2023-07-10T19:58:53.953Z,7.10
2023-07-10T20:01:28.002Z,6.50
2023-07-10T20:04:09.221Z,6.30
2023-07-10T20:06:42.627Z,6.30
2023-07-10T20:09:21.136Z,6.30
2023-07-10T20:11:52.501Z,6.60
2023-07-10T20:14:23.185Z,6.10
2023-07-10T20:17:06.119Z,5.80
2023-07-10T20:19:35.951Z,6.10
2023-07-10T20:22:11.561Z,5.60
2023-07-10T20:24:45.819Z,5.60
2023-07-10T20:27:26.647Z,5.80
2023-07-10T20:29:57.984Z,6.40
2023-07-10T20:32:38.369Z,6.70
2023-07-10T20:35:19.304Z,7.30
2023-07-10T20:38:03.489Z,7.30
2023-07-10T20:40:34.857Z,6.90
2023-07-10T20:43:31.257Z,6.50
2023-07-10T20:46:21.761Z,6.90
2023-07-10T20:49:14.960Z,6.60
2023-07-10T20:51:49.746Z,6.70
2023-07-10T20:54:29.121Z,6.10
2023-07-10T20:57:01.066Z,6.50
2023-07-10T20:59:35.512Z,6.30
2023-07-10T21:02:21.431Z,6.10
2023-07-10T21:04:52.516Z,6.30
2023-07-10T21:07:26.569Z,6.20
2023-07-10T21:10:11.670Z,6.00
2023-07-10T21:12:42.544Z,6.30
2023-07-10T21:15:16.785Z,6.40
2023-07-10T21:17:47.573Z,6.70
2023-07-10T21:20:20.073Z,6.40
2023-07-10T21:22:50.899Z,6.20
2023-07-10T21:25:29.886Z,6.80
2023-07-10T21:28:04.093Z,6.80
2023-07-10T21:30:39.255Z,6.20
2023-07-10T21:33:28.503Z,6.50
2023-07-10T21:36:05.685Z,7.00
2023-07-10T21:38:36.638Z,6.50
2023-07-10T21:41:17.364Z,6.70
2023-07-10T21:43:54.327Z,6.30
2023-07-10T21:46:46.097Z,6.70
2023-07-10T21:49:19.898Z,6.10
2023-07-10T21:52:00.398Z,6.80
2023-07-10T21:54:40.365Z,7.10
2023-07-10T21:57:22.869Z,6.40
2023-07-10T21:59:57.587Z,6.70
2023-07-10T22:02:39.764Z,6.40
2023-07-10T22:05:41.915Z,7.70
2023-07-10T22:08:12.788Z,6.70
2023-07-10T22:10:54.663Z,6.60
2023-07-10T22:13:51.696Z,7.10
2023-07-10T22:16:27.373Z,6.50
2023-07-10T22:19:12.598Z,7.60
2023-07-10T22:21:46.821Z,7.80
2023-07-10T22:24:20.460Z,7.40
2023-07-10T22:27:14.228Z,6.70
2023-07-10T22:29:44.851Z,6.50
2023-07-10T22:32:41.459Z,7.70
2023-07-10T22:37:53.998Z,7.60
2023-07-10T22:41:02.996Z,6.80
2023-07-10T22:43:46.879Z,7.20
2023-07-10T22:46:25.185Z,7.50
2023-07-10T22:49:10.811Z,7.30
2023-07-10T22:51:49.879Z,7.40
2023-07-10T22:54:30.424Z,6.90
2023-07-10T22:57:25.445Z,7.30
2023-07-10T23:00:08.414Z,7.30
2023-07-10T23:02:46.128Z,7.10
2023-07-10T23:05:27.749Z,8.20
2023-07-10T23:08:14.673Z,7.10
2023-07-10T23:11:08.436Z,7.60
2023-07-10T23:13:51.788Z,7.10
2023-07-10T23:16:36.016Z,8.00
2023-07-10T23:19:59.247Z,8.30
2023-07-10T23:22:42.022Z,8.20
2023-07-10T23:25:27.851Z,7.40
2023-07-10T23:28:02.298Z,7.80
2023-07-10T23:30:46.260Z,7.50
2023-07-10T23:33:23.262Z,7.40
2023-07-10T23:36:21.773Z,7.50
2023-07-10T23:39:05.019Z,7.40
2023-07-10T23:41:41.491Z,7.20
2023-07-10T23:44:24.811Z,7.80
2023-07-10T23:47:17.072Z,7.30
2023-07-10T23:49:48.565Z,7.30
2023-07-10T23:52:41.527Z,6.80
2023-07-10T23:55:13.298Z,6.80
2023-07-10T23:57:51.380Z,7.20
